sensor_id;sensor_type;location;lat;lon;timestamp;temperature;humidity
80176;DHT22;69501;42.124;24.722;2023-05-29T00:00:18;20.70;67.00
80176;DHT22;69501;42.124;24.722;2023-05-29T00:02:49;20.70;66.90
80176;DHT22;69501;42.124;24.722;2023-05-29T00:05:15;20.70;66.70
80176;DHT22;69501;42.124;24.722;2023-05-29T00:07:41;20.80;66.40
80176;DHT22;69501;42.124;24.722;2023-05-29T00:10:08;20.80;66.40
80176;DHT22;69501;42.124;24.722;2023-05-29T00:12:34;20.90;66.20
80176;DHT22;69501;42.124;24.722;2023-05-29T00:15:01;20.80;65.80
80176;DHT22;69501;42.124;24.722;2023-05-29T00:17:29;20.80;65.80
80176;DHT22;69501;42.124;24.722;2023-05-29T00:19:54;20.80;65.50
80176;DHT22;69501;42.124;24.722;2023-05-29T00:22:20;20.80;65.80
80176;DHT22;69501;42.124;24.722;2023-05-29T00:24:46;20.80;65.50
80176;DHT22;69501;42.124;24.722;2023-05-29T00:27:12;20.80;65.50
80176;DHT22;69501;42.124;24.722;2023-05-29T00:29:37;20.80;65.40
80176;DHT22;69501;42.124;24.722;2023-05-29T00:32:04;20.80;65.60
80176;DHT22;69501;42.124;24.722;2023-05-29T00:34:31;20.80;65.70
80176;DHT22;69501;42.124;24.722;2023-05-29T00:36:57;20.80;65.70
80176;DHT22;69501;42.124;24.722;2023-05-29T00:39:22;20.90;65.70
80176;DHT22;69501;42.124;24.722;2023-05-29T00:41:48;20.80;65.70
80176;DHT22;69501;42.124;24.722;2023-05-29T00:44:17;20.90;65.80
80176;DHT22;69501;42.124;24.722;2023-05-29T00:46:43;20.70;65.20
80176;DHT22;69501;42.124;24.722;2023-05-29T00:49:09;20.60;65.90
80176;DHT22;69501;42.124;24.722;2023-05-29T00:51:37;20.70;66.40
80176;DHT22;69501;42.124;24.722;2023-05-29T00:54:05;20.60;66.60
80176;DHT22;69501;42.124;24.722;2023-05-29T00:56:33;20.50;66.70
80176;DHT22;69501;42.124;24.722;2023-05-29T00:59:00;20.40;66.90
80176;DHT22;69501;42.124;24.722;2023-05-29T01:01:25;20.40;67.50
80176;DHT22;69501;42.124;24.722;2023-05-29T01:03:55;20.40;67.20
80176;DHT22;69501;42.124;24.722;2023-05-29T01:06:22;20.20;67.60
80176;DHT22;69501;42.124;24.722;2023-05-29T01:08:48;20.20;67.80
80176;DHT22;69501;42.124;24.722;2023-05-29T01:11:20;20.30;68.30
80176;DHT22;69501;42.124;24.722;2023-05-29T01:13:49;20.30;68.30
80176;DHT22;69501;42.124;24.722;2023-05-29T01:21:59;20.40;67.10
80176;DHT22;69501;42.124;24.722;2023-05-29T01:24:49;20.50;67.20
80176;DHT22;69501;42.124;24.722;2023-05-29T01:27:18;20.50;66.70
80176;DHT22;69501;42.124;24.722;2023-05-29T01:29:46;20.50;65.80
80176;DHT22;69501;42.124;24.722;2023-05-29T01:32:12;20.60;65.40
80176;DHT22;69501;42.124;24.722;2023-05-29T01:34:38;20.60;65.70
80176;DHT22;69501;42.124;24.722;2023-05-29T01:37:04;20.60;65.60
80176;DHT22;69501;42.124;24.722;2023-05-29T01:39:30;20.60;65.70
80176;DHT22;69501;42.124;24.722;2023-05-29T01:41:58;20.70;65.20
80176;DHT22;69501;42.124;24.722;2023-05-29T01:44:24;20.70;65.00
80176;DHT22;69501;42.124;24.722;2023-05-29T01:46:50;20.70;65.00
80176;DHT22;69501;42.124;24.722;2023-05-29T01:49:16;20.70;64.80
80176;DHT22;69501;42.124;24.722;2023-05-29T01:51:42;20.70;64.70
80176;DHT22;69501;42.124;24.722;2023-05-29T01:54:08;20.70;64.90
80176;DHT22;69501;42.124;24.722;2023-05-29T01:56:34;20.60;65.10
80176;DHT22;69501;42.124;24.722;2023-05-29T01:59:02;20.70;64.80
80176;DHT22;69501;42.124;24.722;2023-05-29T02:01:28;20.70;64.50
80176;DHT22;69501;42.124;24.722;2023-05-29T02:03:54;20.70;64.30
80176;DHT22;69501;42.124;24.722;2023-05-29T02:06:20;20.70;64.50
80176;DHT22;69501;42.124;24.722;2023-05-29T02:08:46;20.70;64.50
80176;DHT22;69501;42.124;24.722;2023-05-29T02:11:12;20.70;64.20
80176;DHT22;69501;42.124;24.722;2023-05-29T02:13:38;20.70;64.20
80176;DHT22;69501;42.124;24.722;2023-05-29T02:16:05;20.80;64.70
80176;DHT22;69501;42.124;24.722;2023-05-29T02:18:30;20.80;64.20
80176;DHT22;69501;42.124;24.722;2023-05-29T02:20:56;20.80;63.80
80176;DHT22;69501;42.124;24.722;2023-05-29T02:23:22;20.80;63.80
80176;DHT22;69501;42.124;24.722;2023-05-29T02:25:48;20.80;64.10
80176;DHT22;69501;42.124;24.722;2023-05-29T02:28:13;20.80;64.00
80176;DHT22;69501;42.124;24.722;2023-05-29T02:30:39;20.80;64.00
80176;DHT22;69501;42.124;24.722;2023-05-29T02:33:05;20.90;64.20
80176;DHT22;69501;42.124;24.722;2023-05-29T02:35:31;21.00;64.00
80176;DHT22;69501;42.124;24.722;2023-05-29T02:37:57;20.90;63.70
80176;DHT22;69501;42.124;24.722;2023-05-29T02:40:23;20.90;64.00
80176;DHT22;69501;42.124;24.722;2023-05-29T02:42:49;20.90;63.80
80176;DHT22;69501;42.124;24.722;2023-05-29T02:45:16;20.90;63.80
80176;DHT22;69501;42.124;24.722;2023-05-29T02:47:41;20.90;63.90
80176;DHT22;69501;42.124;24.722;2023-05-29T02:50:08;20.90;63.80
80176;DHT22;69501;42.124;24.722;2023-05-29T02:52:34;21.00;65.10
80176;DHT22;69501;42.124;24.722;2023-05-29T02:55:00;21.00;63.60
80176;DHT22;69501;42.124;24.722;2023-05-29T02:57:25;21.00;63.60
80176;DHT22;69501;42.124;24.722;2023-05-29T02:59:51;20.90;63.60
80176;DHT22;69501;42.124;24.722;2023-05-29T03:02:18;20.90;63.50
80176;DHT22;69501;42.124;24.722;2023-05-29T03:04:44;20.90;63.40
80176;DHT22;69501;42.124;24.722;2023-05-29T03:07:10;20.90;63.70
80176;DHT22;69501;42.124;24.722;2023-05-29T03:09:36;20.80;63.80
80176;DHT22;69501;42.124;24.722;2023-05-29T03:12:01;20.80;63.80
80176;DHT22;69501;42.124;24.722;2023-05-29T03:14:27;20.70;64.10
80176;DHT22;69501;42.124;24.722;2023-05-29T03:16:54;20.70;63.70
80176;DHT22;69501;42.124;24.722;2023-05-29T03:19:20;20.70;64.40
80176;DHT22;69501;42.124;24.722;2023-05-29T03:21:46;20.70;63.90
80176;DHT22;69501;42.124;24.722;2023-05-29T03:24:12;20.70;64.20
80176;DHT22;69501;42.124;24.722;2023-05-29T03:26:40;20.70;64.20
80176;DHT22;69501;42.124;24.722;2023-05-29T03:29:06;20.70;64.10
80176;DHT22;69501;42.124;24.722;2023-05-29T03:31:32;20.70;64.40
80176;DHT22;69501;42.124;24.722;2023-05-29T03:33:58;20.70;64.60
80176;DHT22;69501;42.124;24.722;2023-05-29T03:36:24;20.80;64.70
80176;DHT22;69501;42.124;24.722;2023-05-29T03:38:50;20.80;64.60
80176;DHT22;69501;42.124;24.722;2023-05-29T03:41:16;20.80;64.70
80176;DHT22;69501;42.124;24.722;2023-05-29T03:43:41;20.90;64.50
80176;DHT22;69501;42.124;24.722;2023-05-29T03:46:07;20.90;64.60
80176;DHT22;69501;42.124;24.722;2023-05-29T03:48:33;20.90;64.70
80176;DHT22;69501;42.124;24.722;2023-05-29T03:50:58;20.70;64.90
80176;DHT22;69501;42.124;24.722;2023-05-29T03:53:24;20.70;65.20
80176;DHT22;69501;42.124;24.722;2023-05-29T03:55:50;20.70;65.40
80176;DHT22;69501;42.124;24.722;2023-05-29T03:58:15;20.70;65.30
80176;DHT22;69501;42.124;24.722;2023-05-29T04:00:41;20.60;65.20
80176;DHT22;69501;42.124;24.722;2023-05-29T04:03:07;20.60;65.40
80176;DHT22;69501;42.124;24.722;2023-05-29T04:05:33;20.60;65.30
80176;DHT22;69501;42.124;24.722;2023-05-29T04:07:59;20.50;65.30
80176;DHT22;69501;42.124;24.722;2023-05-29T04:10:24;20.40;65.50
80176;DHT22;69501;42.124;24.722;2023-05-29T04:12:50;20.50;65.60
80176;DHT22;69501;42.124;24.722;2023-05-29T04:15:16;20.40;65.60
80176;DHT22;69501;42.124;24.722;2023-05-29T04:17:42;20.40;65.80
80176;DHT22;69501;42.124;24.722;2023-05-29T04:20:08;20.40;65.50
80176;DHT22;69501;42.124;24.722;2023-05-29T04:22:37;20.40;65.30
80176;DHT22;69501;42.124;24.722;2023-05-29T04:25:03;20.40;65.00
80176;DHT22;69501;42.124;24.722;2023-05-29T04:27:30;20.30;64.90
80176;DHT22;69501;42.124;24.722;2023-05-29T04:29:58;20.30;65.00
80176;DHT22;69501;42.124;24.722;2023-05-29T04:32:23;20.40;65.20
80176;DHT22;69501;42.124;24.722;2023-05-29T04:34:50;20.50;65.10
80176;DHT22;69501;42.124;24.722;2023-05-29T04:37:16;20.60;64.90
80176;DHT22;69501;42.124;24.722;2023-05-29T04:39:43;20.70;64.50
80176;DHT22;69501;42.124;24.722;2023-05-29T04:42:08;20.80;64.10
80176;DHT22;69501;42.124;24.722;2023-05-29T04:44:34;21.00;64.90
80176;DHT22;69501;42.124;24.722;2023-05-29T04:47:00;21.20;65.00
80176;DHT22;69501;42.124;24.722;2023-05-29T04:49:29;21.40;64.60
80176;DHT22;69501;42.124;24.722;2023-05-29T04:51:54;21.60;63.30
80176;DHT22;69501;42.124;24.722;2023-05-29T04:54:22;21.80;63.10
80176;DHT22;69501;42.124;24.722;2023-05-29T04:56:47;22.00;62.60
80176;DHT22;69501;42.124;24.722;2023-05-29T04:59:13;22.20;61.60
80176;DHT22;69501;42.124;24.722;2023-05-29T05:01:39;22.30;60.20
80176;DHT22;69501;42.124;24.722;2023-05-29T05:04:05;22.50;59.60
80176;DHT22;69501;42.124;24.722;2023-05-29T05:06:31;22.50;58.00
80176;DHT22;69501;42.124;24.722;2023-05-29T05:08:56;22.50;57.30
80176;DHT22;69501;42.124;24.722;2023-05-29T05:11:23;22.50;58.00
80176;DHT22;69501;42.124;24.722;2023-05-29T05:13:49;22.50;56.70
80176;DHT22;69501;42.124;24.722;2023-05-29T05:16:15;22.50;57.30
80176;DHT22;69501;42.124;24.722;2023-05-29T05:18:43;22.50;57.10
80176;DHT22;69501;42.124;24.722;2023-05-29T05:21:08;22.50;57.30
80176;DHT22;69501;42.124;24.722;2023-05-29T05:23:34;22.60;57.10
80176;DHT22;69501;42.124;24.722;2023-05-29T05:26:00;22.60;56.80
80176;DHT22;69501;42.124;24.722;2023-05-29T05:28:25;22.70;56.40
80176;DHT22;69501;42.124;24.722;2023-05-29T05:30:51;22.70;56.40
80176;DHT22;69501;42.124;24.722;2023-05-29T05:33:17;22.80;56.30
80176;DHT22;69501;42.124;24.722;2023-05-29T05:35:43;22.80;56.20
80176;DHT22;69501;42.124;24.722;2023-05-29T05:38:08;22.80;55.80
80176;DHT22;69501;42.124;24.722;2023-05-29T05:40:34;22.80;56.40
80176;DHT22;69501;42.124;24.722;2023-05-29T05:43:00;22.80;56.40
80176;DHT22;69501;42.124;24.722;2023-05-29T05:45:26;22.80;56.60
80176;DHT22;69501;42.124;24.722;2023-05-29T05:47:51;22.80;57.20
80176;DHT22;69501;42.124;24.722;2023-05-29T05:50:17;22.70;57.60
80176;DHT22;69501;42.124;24.722;2023-05-29T05:52:43;22.70;57.80
80176;DHT22;69501;42.124;24.722;2023-05-29T05:55:31;22.80;57.80
80176;DHT22;69501;42.124;24.722;2023-05-29T05:57:57;22.90;57.70
80176;DHT22;69501;42.124;24.722;2023-05-29T06:00:26;23.00;57.20
80176;DHT22;69501;42.124;24.722;2023-05-29T06:02:52;23.10;56.80
80176;DHT22;69501;42.124;24.722;2023-05-29T06:05:17;23.20;56.70
80176;DHT22;69501;42.124;24.722;2023-05-29T06:07:43;23.30;56.20
80176;DHT22;69501;42.124;24.722;2023-05-29T06:10:09;23.30;55.70
80176;DHT22;69501;42.124;24.722;2023-05-29T06:12:35;23.30;55.50
80176;DHT22;69501;42.124;24.722;2023-05-29T06:15:01;23.20;55.00
80176;DHT22;69501;42.124;24.722;2023-05-29T06:17:28;23.10;56.50
80176;DHT22;69501;42.124;24.722;2023-05-29T06:19:54;23.20;56.20
80176;DHT22;69501;42.124;24.722;2023-05-29T06:22:20;23.20;56.30
80176;DHT22;69501;42.124;24.722;2023-05-29T06:24:45;23.20;56.60
80176;DHT22;69501;42.124;24.722;2023-05-29T06:27:11;23.20;55.70
80176;DHT22;69501;42.124;24.722;2023-05-29T06:29:37;23.00;55.30
80176;DHT22;69501;42.124;24.722;2023-05-29T06:32:02;22.80;55.70
80176;DHT22;69501;42.124;24.722;2023-05-29T06:34:28;22.70;56.40
80176;DHT22;69501;42.124;24.722;2023-05-29T06:36:54;22.60;58.10
80176;DHT22;69501;42.124;24.722;2023-05-29T06:39:19;22.50;57.70
80176;DHT22;69501;42.124;24.722;2023-05-29T06:41:46;22.50;58.00
80176;DHT22;69501;42.124;24.722;2023-05-29T06:44:11;22.50;58.50
80176;DHT22;69501;42.124;24.722;2023-05-29T06:46:37;22.40;58.60
80176;DHT22;69501;42.124;24.722;2023-05-29T06:49:03;22.40;59.10
80176;DHT22;69501;42.124;24.722;2023-05-29T06:51:29;22.40;59.20
80176;DHT22;69501;42.124;24.722;2023-05-29T06:53:55;22.50;59.40
80176;DHT22;69501;42.124;24.722;2023-05-29T06:56:20;22.60;58.80
80176;DHT22;69501;42.124;24.722;2023-05-29T06:58:47;22.60;58.60
80176;DHT22;69501;42.124;24.722;2023-05-29T07:01:13;22.70;58.60
80176;DHT22;69501;42.124;24.722;2023-05-29T07:03:39;22.80;58.10
80176;DHT22;69501;42.124;24.722;2023-05-29T07:06:05;22.90;57.70
80176;DHT22;69501;42.124;24.722;2023-05-29T07:08:31;23.00;56.60
80176;DHT22;69501;42.124;24.722;2023-05-29T07:10:57;22.90;56.50
80176;DHT22;69501;42.124;24.722;2023-05-29T07:13:25;22.80;55.90
80176;DHT22;69501;42.124;24.722;2023-05-29T07:15:52;22.70;55.60
80176;DHT22;69501;42.124;24.722;2023-05-29T07:18:17;22.70;55.80
80176;DHT22;69501;42.124;24.722;2023-05-29T07:20:43;22.70;55.50
80176;DHT22;69501;42.124;24.722;2023-05-29T07:23:08;22.60;55.40
80176;DHT22;69501;42.124;24.722;2023-05-29T07:25:34;22.50;55.50
80176;DHT22;69501;42.124;24.722;2023-05-29T07:28:00;22.50;55.60
80176;DHT22;69501;42.124;24.722;2023-05-29T07:30:25;22.50;55.90
80176;DHT22;69501;42.124;24.722;2023-05-29T07:32:51;22.50;56.30
80176;DHT22;69501;42.124;24.722;2023-05-29T07:35:17;22.40;55.20
80176;DHT22;69501;42.124;24.722;2023-05-29T07:37:42;22.50;56.20
80176;DHT22;69501;42.124;24.722;2023-05-29T07:40:09;22.60;56.90
80176;DHT22;69501;42.124;24.722;2023-05-29T07:42:35;22.60;56.20
80176;DHT22;69501;42.124;24.722;2023-05-29T07:45:01;22.70;55.50
80176;DHT22;69501;42.124;24.722;2023-05-29T07:47:27;22.70;54.40
80176;DHT22;69501;42.124;24.722;2023-05-29T07:49:52;22.50;54.10
80176;DHT22;69501;42.124;24.722;2023-05-29T07:52:18;22.40;54.80
80176;DHT22;69501;42.124;24.722;2023-05-29T07:54:44;22.50;55.80
80176;DHT22;69501;42.124;24.722;2023-05-29T07:57:10;22.60;55.70
80176;DHT22;69501;42.124;24.722;2023-05-29T07:59:36;22.80;54.90
80176;DHT22;69501;42.124;24.722;2023-05-29T08:02:02;22.80;54.80
80176;DHT22;69501;42.124;24.722;2023-05-29T08:04:29;22.90;54.90
80176;DHT22;69501;42.124;24.722;2023-05-29T08:06:56;23.00;54.70
80176;DHT22;69501;42.124;24.722;2023-05-29T08:09:21;23.20;53.80
80176;DHT22;69501;42.124;24.722;2023-05-29T08:11:47;23.20;53.50
80176;DHT22;69501;42.124;24.722;2023-05-29T08:14:15;23.20;52.80
80176;DHT22;69501;42.124;24.722;2023-05-29T08:16:42;23.20;53.10
80176;DHT22;69501;42.124;24.722;2023-05-29T08:19:07;23.20;53.10
80176;DHT22;69501;42.124;24.722;2023-05-29T08:21:33;23.30;53.30
80176;DHT22;69501;42.124;24.722;2023-05-29T08:23:59;23.30;53.00
80176;DHT22;69501;42.124;24.722;2023-05-29T08:26:26;23.30;52.90
80176;DHT22;69501;42.124;24.722;2023-05-29T08:28:52;23.50;52.50
80176;DHT22;69501;42.124;24.722;2023-05-29T08:31:18;23.50;52.70
80176;DHT22;69501;42.124;24.722;2023-05-29T08:33:44;23.60;52.60
80176;DHT22;69501;42.124;24.722;2023-05-29T08:36:10;23.60;50.90
80176;DHT22;69501;42.124;24.722;2023-05-29T08:38:36;23.70;51.30
80176;DHT22;69501;42.124;24.722;2023-05-29T08:41:02;23.80;51.10
80176;DHT22;69501;42.124;24.722;2023-05-29T08:43:32;24.00;50.50
80176;DHT22;69501;42.124;24.722;2023-05-29T08:46:02;24.00;49.20
80176;DHT22;69501;42.124;24.722;2023-05-29T08:48:30;24.10;48.20
80176;DHT22;69501;42.124;24.722;2023-05-29T08:50:57;24.10;48.20
80176;DHT22;69501;42.124;24.722;2023-05-29T08:53:24;24.20;48.00
80176;DHT22;69501;42.124;24.722;2023-05-29T08:55:52;24.30;47.70
80176;DHT22;69501;42.124;24.722;2023-05-29T08:58:21;24.30;46.80
80176;DHT22;69501;42.124;24.722;2023-05-29T09:00:48;24.40;46.20
80176;DHT22;69501;42.124;24.722;2023-05-29T09:03:15;24.40;45.70
80176;DHT22;69501;42.124;24.722;2023-05-29T09:05:41;24.50;46.50
80176;DHT22;69501;42.124;24.722;2023-05-29T09:08:08;24.50;46.40
80176;DHT22;69501;42.124;24.722;2023-05-29T09:10:35;24.60;46.30
80176;DHT22;69501;42.124;24.722;2023-05-29T09:13:02;24.70;46.30
80176;DHT22;69501;42.124;24.722;2023-05-29T09:15:28;24.80;45.90
80176;DHT22;69501;42.124;24.722;2023-05-29T09:17:57;24.90;45.00
80176;DHT22;69501;42.124;24.722;2023-05-29T09:20:24;24.90;44.70
80176;DHT22;69501;42.124;24.722;2023-05-29T09:25:25;24.90;44.60
80176;DHT22;69501;42.124;24.722;2023-05-29T09:30:40;24.80;44.20
80176;DHT22;69501;42.124;24.722;2023-05-29T09:33:11;24.70;44.40
80176;DHT22;69501;42.124;24.722;2023-05-29T09:35:41;24.70;44.80
80176;DHT22;69501;42.124;24.722;2023-05-29T09:38:09;24.70;45.30
80176;DHT22;69501;42.124;24.722;2023-05-29T09:40:39;24.60;44.80
80176;DHT22;69501;42.124;24.722;2023-05-29T09:43:16;24.60;44.90
80176;DHT22;69501;42.124;24.722;2023-05-29T09:45:44;24.60;45.60
80176;DHT22;69501;42.124;24.722;2023-05-29T09:48:15;24.60;45.60
80176;DHT22;69501;42.124;24.722;2023-05-29T09:50:45;24.60;45.80
80176;DHT22;69501;42.124;24.722;2023-05-29T09:53:24;24.60;46.10
80176;DHT22;69501;42.124;24.722;2023-05-29T09:55:54;24.70;45.00
80176;DHT22;69501;42.124;24.722;2023-05-29T09:58:24;24.60;45.20
80176;DHT22;69501;42.124;24.722;2023-05-29T10:00:52;24.70;45.20
80176;DHT22;69501;42.124;24.722;2023-05-29T10:03:19;24.70;44.80
80176;DHT22;69501;42.124;24.722;2023-05-29T10:05:50;24.70;44.70
80176;DHT22;69501;42.124;24.722;2023-05-29T10:08:19;24.70;45.00
80176;DHT22;69501;42.124;24.722;2023-05-29T10:10:56;24.70;44.80
80176;DHT22;69501;42.124;24.722;2023-05-29T10:13:28;24.70;44.80
80176;DHT22;69501;42.124;24.722;2023-05-29T10:15:55;24.70;44.90
80176;DHT22;69501;42.124;24.722;2023-05-29T10:18:26;24.70;44.90
80176;DHT22;69501;42.124;24.722;2023-05-29T10:20:54;24.80;45.00
80176;DHT22;69501;42.124;24.722;2023-05-29T10:23:23;24.80;44.40
80176;DHT22;69501;42.124;24.722;2023-05-29T10:25:52;24.90;43.70
80176;DHT22;69501;42.124;24.722;2023-05-29T10:28:19;24.90;43.40
80176;DHT22;69501;42.124;24.722;2023-05-29T10:30:51;25.00;42.50
80176;DHT22;69501;42.124;24.722;2023-05-29T10:38:27;25.30;41.30
80176;DHT22;69501;42.124;24.722;2023-05-29T10:40:53;25.40;41.60
80176;DHT22;69501;42.124;24.722;2023-05-29T10:43:32;25.50;41.20
80176;DHT22;69501;42.124;24.722;2023-05-29T10:46:00;25.60;40.90
80176;DHT22;69501;42.124;24.722;2023-05-29T10:50:55;25.80;40.30
80176;DHT22;69501;42.124;24.722;2023-05-29T10:53:25;26.00;40.30
80176;DHT22;69501;42.124;24.722;2023-05-29T10:55:52;26.10;40.00
80176;DHT22;69501;42.124;24.722;2023-05-29T10:58:20;26.20;39.50
80176;DHT22;69501;42.124;24.722;2023-05-29T11:00:46;26.30;39.60
80176;DHT22;69501;42.124;24.722;2023-05-29T11:03:31;26.40;39.50
80176;DHT22;69501;42.124;24.722;2023-05-29T11:11:31;26.90;38.70
80176;DHT22;69501;42.124;24.722;2023-05-29T11:14:04;27.10;38.50
80176;DHT22;69501;42.124;24.722;2023-05-29T11:19:07;27.80;37.60
80176;DHT22;69501;42.124;24.722;2023-05-29T11:21:59;28.00;36.50
80176;DHT22;69501;42.124;24.722;2023-05-29T11:24:27;28.10;35.30
80176;DHT22;69501;42.124;24.722;2023-05-29T11:26:54;27.90;35.80
80176;DHT22;69501;42.124;24.722;2023-05-29T11:29:28;28.00;36.10
80176;DHT22;69501;42.124;24.722;2023-05-29T11:32:05;28.00;35.70
80176;DHT22;69501;42.124;24.722;2023-05-29T11:34:32;27.90;35.20
80176;DHT22;69501;42.124;24.722;2023-05-29T11:37:01;28.00;35.50
80176;DHT22;69501;42.124;24.722;2023-05-29T11:39:28;28.10;35.60
80176;DHT22;69501;42.124;24.722;2023-05-29T11:41:54;28.00;35.50
80176;DHT22;69501;42.124;24.722;2023-05-29T11:44:20;28.00;35.70
80176;DHT22;69501;42.124;24.722;2023-05-29T11:46:59;27.90;35.90
80176;DHT22;69501;42.124;24.722;2023-05-29T11:49:31;27.80;35.90
80176;DHT22;69501;42.124;24.722;2023-05-29T11:52:12;27.80;36.20
80176;DHT22;69501;42.124;24.722;2023-05-29T11:54:39;27.80;36.20
80176;DHT22;69501;42.124;24.722;2023-05-29T11:57:07;27.70;36.70
80176;DHT22;69501;42.124;24.722;2023-05-29T11:59:33;27.80;36.70
80176;DHT22;69501;42.124;24.722;2023-05-29T12:02:02;27.80;36.00
80176;DHT22;69501;42.124;24.722;2023-05-29T12:04:29;27.80;36.20
80176;DHT22;69501;42.124;24.722;2023-05-29T12:06:55;27.80;36.20
80176;DHT22;69501;42.124;24.722;2023-05-29T12:09:28;27.90;36.50
80176;DHT22;69501;42.124;24.722;2023-05-29T12:12:03;27.90;36.30
80176;DHT22;69501;42.124;24.722;2023-05-29T12:14:29;27.80;36.40
80176;DHT22;69501;42.124;24.722;2023-05-29T12:16:55;27.90;36.80
80176;DHT22;69501;42.124;24.722;2023-05-29T12:19:21;28.00;36.60
80176;DHT22;69501;42.124;24.722;2023-05-29T12:21:46;28.00;36.50
80176;DHT22;69501;42.124;24.722;2023-05-29T12:24:12;28.20;36.40
80176;DHT22;69501;42.124;24.722;2023-05-29T12:26:39;28.40;36.20
80176;DHT22;69501;42.124;24.722;2023-05-29T12:29:05;28.50;35.90
80176;DHT22;69501;42.124;24.722;2023-05-29T12:31:31;28.50;35.00
80176;DHT22;69501;42.124;24.722;2023-05-29T12:34:02;28.50;35.20
80176;DHT22;69501;42.124;24.722;2023-05-29T12:36:28;28.50;35.70
80176;DHT22;69501;42.124;24.722;2023-05-29T12:38:53;28.40;36.00
80176;DHT22;69501;42.124;24.722;2023-05-29T12:41:30;28.50;36.10
80176;DHT22;69501;42.124;24.722;2023-05-29T12:43:57;28.60;36.20
80176;DHT22;69501;42.124;24.722;2023-05-29T12:46:26;28.60;34.80
80176;DHT22;69501;42.124;24.722;2023-05-29T12:48:56;28.60;34.90
80176;DHT22;69501;42.124;24.722;2023-05-29T12:51:28;28.60;35.00
80176;DHT22;69501;42.124;24.722;2023-05-29T12:53:54;28.70;35.30
80176;DHT22;69501;42.124;24.722;2023-05-29T12:56:23;28.70;35.30
80176;DHT22;69501;42.124;24.722;2023-05-29T12:58:52;28.60;34.90
80176;DHT22;69501;42.124;24.722;2023-05-29T13:01:18;28.60;34.80
80176;DHT22;69501;42.124;24.722;2023-05-29T13:03:44;28.60;34.90
80176;DHT22;69501;42.124;24.722;2023-05-29T13:06:10;28.60;34.80
80176;DHT22;69501;42.124;24.722;2023-05-29T13:08:37;28.60;34.70
80176;DHT22;69501;42.124;24.722;2023-05-29T13:11:02;28.60;34.90
80176;DHT22;69501;42.124;24.722;2023-05-29T13:13:28;28.50;35.70
80176;DHT22;69501;42.124;24.722;2023-05-29T13:15:54;28.50;35.90
80176;DHT22;69501;42.124;24.722;2023-05-29T13:18:20;28.40;36.00
80176;DHT22;69501;42.124;24.722;2023-05-29T13:20:45;28.40;36.30
80176;DHT22;69501;42.124;24.722;2023-05-29T13:23:11;28.40;36.30
80176;DHT22;69501;42.124;24.722;2023-05-29T13:25:36;28.30;36.10
80176;DHT22;69501;42.124;24.722;2023-05-29T13:28:02;28.20;36.20
80176;DHT22;69501;42.124;24.722;2023-05-29T13:30:28;28.10;36.30
80176;DHT22;69501;42.124;24.722;2023-05-29T13:32:53;28.00;36.60
80176;DHT22;69501;42.124;24.722;2023-05-29T13:35:20;28.00;36.70
80176;DHT22;69501;42.124;24.722;2023-05-29T13:37:45;27.90;36.90
80176;DHT22;69501;42.124;24.722;2023-05-29T13:40:12;27.80;37.00
80176;DHT22;69501;42.124;24.722;2023-05-29T13:42:39;27.90;37.00
80176;DHT22;69501;42.124;24.722;2023-05-29T13:45:06;27.90;36.40
80176;DHT22;69501;42.124;24.722;2023-05-29T13:47:33;27.90;35.90
80176;DHT22;69501;42.124;24.722;2023-05-29T13:49:59;28.00;36.10
80176;DHT22;69501;42.124;24.722;2023-05-29T13:52:26;28.00;36.10
80176;DHT22;69501;42.124;24.722;2023-05-29T13:54:51;28.00;36.60
80176;DHT22;69501;42.124;24.722;2023-05-29T13:57:17;28.20;36.60
80176;DHT22;69501;42.124;24.722;2023-05-29T13:59:43;28.40;36.80
80176;DHT22;69501;42.124;24.722;2023-05-29T14:02:08;28.70;36.70
80176;DHT22;69501;42.124;24.722;2023-05-29T14:04:34;29.10;35.90
80176;DHT22;69501;42.124;24.722;2023-05-29T14:07:00;29.20;35.00
80176;DHT22;69501;42.124;24.722;2023-05-29T14:09:26;29.30;34.30
80176;DHT22;69501;42.124;24.722;2023-05-29T14:11:55;29.30;34.40
80176;DHT22;69501;42.124;24.722;2023-05-29T14:14:22;29.50;34.80
80176;DHT22;69501;42.124;24.722;2023-05-29T14:16:48;29.70;35.80
80176;DHT22;69501;42.124;24.722;2023-05-29T14:19:14;29.80;37.10
80176;DHT22;69501;42.124;24.722;2023-05-29T14:21:40;29.60;37.30
80176;DHT22;69501;42.124;24.722;2023-05-29T14:24:05;29.30;37.80
80176;DHT22;69501;42.124;24.722;2023-05-29T14:26:32;28.90;38.40
80176;DHT22;69501;42.124;24.722;2023-05-29T14:28:58;28.40;39.70
80176;DHT22;69501;42.124;24.722;2023-05-29T14:31:24;28.00;40.90
80176;DHT22;69501;42.124;24.722;2023-05-29T14:33:50;27.60;42.10
80176;DHT22;69501;42.124;24.722;2023-05-29T14:36:15;27.30;43.00
80176;DHT22;69501;42.124;24.722;2023-05-29T14:38:41;26.90;43.00
80176;DHT22;69501;42.124;24.722;2023-05-29T14:41:08;26.60;43.60
80176;DHT22;69501;42.124;24.722;2023-05-29T14:43:34;26.20;44.40
80176;DHT22;69501;42.124;24.722;2023-05-29T14:45:59;26.00;45.50
80176;DHT22;69501;42.124;24.722;2023-05-29T14:48:25;25.90;46.00
80176;DHT22;69501;42.124;24.722;2023-05-29T14:50:50;25.90;46.40
80176;DHT22;69501;42.124;24.722;2023-05-29T14:53:42;26.00;46.70
80176;DHT22;69501;42.124;24.722;2023-05-29T14:56:07;26.10;46.40
80176;DHT22;69501;42.124;24.722;2023-05-29T14:58:33;26.30;46.10
80176;DHT22;69501;42.124;24.722;2023-05-29T15:00:59;26.50;45.80
80176;DHT22;69501;42.124;24.722;2023-05-29T15:03:24;26.50;45.80
80176;DHT22;69501;42.124;24.722;2023-05-29T15:05:59;26.60;45.60
80176;DHT22;69501;42.124;24.722;2023-05-29T15:08:25;26.70;45.80
80176;DHT22;69501;42.124;24.722;2023-05-29T15:10:50;26.70;46.10
80176;DHT22;69501;42.124;24.722;2023-05-29T15:13:17;26.70;46.40
80176;DHT22;69501;42.124;24.722;2023-05-29T15:15:42;26.60;46.80
80176;DHT22;69501;42.124;24.722;2023-05-29T15:18:08;26.50;47.50
80176;DHT22;69501;42.124;24.722;2023-05-29T15:20:34;26.40;48.60
80176;DHT22;69501;42.124;24.722;2023-05-29T15:23:02;26.30;49.90
80176;DHT22;69501;42.124;24.722;2023-05-29T15:25:35;26.20;50.70
80176;DHT22;69501;42.124;24.722;2023-05-29T15:28:03;26.10;51.40
80176;DHT22;69501;42.124;24.722;2023-05-29T15:30:31;25.90;51.70
80176;DHT22;69501;42.124;24.722;2023-05-29T15:32:56;25.80;51.70
80176;DHT22;69501;42.124;24.722;2023-05-29T15:35:22;25.80;51.70
80176;DHT22;69501;42.124;24.722;2023-05-29T15:37:51;25.60;52.00
80176;DHT22;69501;42.124;24.722;2023-05-29T15:40:20;25.40;52.40